メインページ
METAR-TAF:

METAR-TAF

空港 :

カウナカカイ, ハワイ州, アメリカ合衆国

緯度: 21-09N, 経度: 157-06W, 海抜: 138m

現時点の気象観測

当レポートは21分前の02:54(UTC)に作成
の風 6kt
気温 24°C
湿度 61%
気圧 1016 hPa
視程: 16.1km
高度3700ftの雲は散在している

METAR: PHMK 200254Z 17006KT 10SM SCT037 24/16 A2999 RMK AO2 SLP157 T02440156 55003 $

時間: 17:15 (03:15 UTC)

予報

当レポートは3時間53分前の23:22(UTC)に作成
予報は20日の 00時(UTC)から 20日の 24時(UTC)まで有効
北/北東の風 6kt
視程: 10km
高度4000ftの千切れ雲あり
20日の 0600時(UTC)から
変向風 5kt
視程: 10km
高度3500ftの雲はほとんどない
20日の 2100時(UTC)から
北/北東の風 8kt
視程: 10km
高度3500ftの雲はほとんどない
高度4500ftの雲は散在している

TAF: PHMK 192322Z 2000/2024 02006KT P6SM BKN040 FM200600 VRB05KT P6SM FEW035 FM202100 03008KT P6SM FEW035 SCT045

4,000以上の空港の気象観測と天気予報(METAR報とTAF報)

利用可能な観測所は地図上に黄色い丸と赤い丸で示す。

丸の上にカーソルを重ねると観測所名を参照できる。

次にクリックすると気象観測と天気予報を参照できる。

マップの切り替え:黒色「×」印の緑ボタンをクリックして拡大、「-」印の緑ボタンをクリックして縮小、緑色の三角印をクリックして隣りの地図に切り替え


METAR-TAF: